Azure — ZCEE2 — position and weather

sailwx.info

Track history (hours):
 
Tides and Currents Weather Stations Pressure Air Temp Water Temp Dewpoint Dewpoint Depression Visibility Wind Speed Wind Dir Waves Ship Positions

Azure

Last reported at 2019-Feb-22 04:00 UTC. Time now 2019-Feb-23 17:20 UTC.
Position N 12°42' W 060°12'.

Length 289 m; draft 8.6 m.

Type: Passenger vessel. MMSI: 310610000.

Wind from 060 at 28 knots

Barometer 1016.2 mb
Air temperature 25.5 ° C
Visibility: greater than 10.8 NM
Dewpoint 19.3 ° C
Water temperature 27.0 ° C

Date/timePositionNaut miles runAvg speedWind from/ knotsBaromVisibWave heightAir tempDewpointWater temp
2019-Feb-22 04:00N 12°42' W 060°12'102 4.7 060 / 281016.210.8 25.519.327.0
2019-Feb-21 06:00N 12°18' W 061°54'36 1.5 070 / 251015.610.8 25.521.027.0
2019-Feb-20 06:00N 12°54' W 061°48'42 7.0 090 / 351017.0 5.4 25.521.827.0
2019-Feb-20 00:00N 12°12' W 061°48'119 4.7 100 / 251016.210.8 26.220.526.8
2019-Feb-18 22:38N 14°03' W 061°04'212.5
2019-Feb-18 22:27N 14°02' W 061°02'12 1.1
2019-Feb-18 11:09N 14°11' W 061°09'516.9
2019-Feb-18 10:50N 14°16' W 061°12'917.0
2019-Feb-18 10:19N 14°24' W 061°16'717.8
2019-Feb-18 09:55N 14°30' W 061°20'918.0
2019-Feb-18 09:27N 14°37' W 061°24'918.8
2019-Feb-18 08:59N 14°45' W 061°28'9118.3
2019-Feb-18 04:00N 16°06' W 062°12'8220.4 070 / 251018.010.8 25.019.626.0
2019-Feb-17 23:58N 17°17' W 062°55'818.3
2019-Feb-17 23:30N 17°26' W 062°55'814.9
2019-Feb-17 23:00N 17°18' W 062°54'20115.0 090 / 201017.210.8 26.221.626.3
2019-Feb-17 22:49N 17°38' W 062°56'618.4
2019-Feb-17 22:30N 17°43' W 062°59'1117.8
2019-Feb-17 21:52N 17°54' W 063°04'616.3
2019-Feb-17 21:30N 17°59' W 063°05'3 3.1
2019-Feb-17 20:39N 18°01' W 063°03'0 0.0
2019-Feb-17 20:21N 18°01' W 063°03'0 0.0
2019-Feb-17 19:21N 18°01' W 063°03'0 0.0
2019-Feb-17 18:39N 18°01' W 063°03'0 0.0
2019-Feb-17 18:09N 18°01' W 063°03'0 0.0
2019-Feb-17 17:57N 18°01' W 063°03'0 0.0
2019-Feb-17 17:12N 18°01' W 063°03'0 0.0
2019-Feb-17 17:00N 18°01' W 063°03'0 0.0
2019-Feb-17 16:12N 18°01' W 063°03'0 0.0
2019-Feb-17 16:00N 18°01' W 063°03'0 0.0
2019-Feb-17 15:30N 18°01' W 063°03'0 0.0
2019-Feb-17 14:57N 18°01' W 063°03'0 0.0
2019-Feb-17 14:27N 18°01' W 063°03'0 0.0
2019-Feb-17 14:00N 18°01' W 063°03'0 0.0
2019-Feb-17 13:30N 18°01' W 063°03'0 0.0
2019-Feb-17 13:00N 18°01' W 063°03'0 0.0
2019-Feb-17 12:30N 18°01' W 063°03'0 0.0
2019-Feb-17 12:00N 18°01' W 063°03'0 0.0
2019-Feb-17 11:30N 18°01' W 063°03'0 0.0
2019-Feb-17 11:00N 18°01' W 063°03'1 1.0
2019-Feb-17 10:29N 18°00' W 063°03'3 6.0
2019-Feb-17 09:59N 18°00' W 063°06'5 7.5
2019-Feb-17 09:22N 18°00' W 063°11'4 7.8
2019-Feb-17 08:48N 18°00' W 063°16'3 7.6
2019-Feb-17 08:27N 18°00' W 063°18'4 7.4
2019-Feb-17 07:58N 18°00' W 063°22'4 6.5
2019-Feb-17 07:22N 17°59' W 063°26'3 8.2
2019-Feb-17 07:00N 17°56' W 063°26'9 8.0
2019-Feb-17 05:50N 17°47' W 063°26'2 7.4
2019-Feb-17 05:30N 17°46' W 063°23'4 7.9
2019-Feb-17 04:56N 17°46' W 063°19'6 8.0
2019-Feb-17 04:11N 17°46' W 063°12'2 8.4
2019-Feb-17 03:55N 17°45' W 063°10'4 7.9
2019-Feb-17 03:28N 17°45' W 063°06'4 7.9
2019-Feb-17 03:00N 17°41' W 063°06'5 8.1
2019-Feb-17 02:27N 17°37' W 063°06'4 8.2
2019-Feb-17 01:59N 17°33' W 063°07'4 8.1
2019-Feb-17 01:28N 17°29' W 063°08'4 7.8
2019-Feb-17 00:54N 17°25' W 063°06'4 7.6
2019-Feb-17 00:23N 17°23' W 063°03'6 7.8
2019-Feb-16 23:41N 17°19' W 062°58'2 8.1
2019-Feb-16 23:30N 17°18' W 062°57'10 7.6
2019-Feb-16 22:11N 17°15' W 062°47'2 8.1
2019-Feb-16 21:56N 17°15' W 062°45'2 0.2
2019-Feb-16 10:16N 17°17' W 062°43'8 7.1
2019-Feb-16 09:13N 17°17' W 062°51'210.7
2019-Feb-16 09:00N 17°19' W 062°53'611.2
2019-Feb-16 08:30N 17°22' W 062°58'611.1
2019-Feb-16 07:57N 17°26' W 063°02'611.1
2019-Feb-16 07:24N 17°32' W 063°06'511.3
2019-Feb-16 06:58N 17°36' W 063°08'611.2
2019-Feb-16 06:28N 17°41' W 063°11'511.0
2019-Feb-16 05:59N 17°44' W 063°16'510.9
2019-Feb-16 05:30N 17°46' W 063°21'611.1
2019-Feb-16 04:57N 17°49' W 063°26'511.0
2019-Feb-16 04:29N 17°51' W 063°31'611.2
2019-Feb-16 03:58N 17°54' W 063°36'511.2
2019-Feb-16 03:30N 17°56' W 063°41'611.2
2019-Feb-16 02:58N 17°58' W 063°47'611.3
2019-Feb-16 02:27N 18°01' W 063°53'32 9.2
2019-Feb-15 23:00N 18°12' W 064°24'1141.6 150 / 151015.910.8 26.222.226.0
2019-Feb-15 22:44N 18°19' W 064°32'311.2
2019-Feb-15 22:30N 18°22' W 064°33'4 7.0
2019-Feb-15 21:54N 18°25' W 064°36'0 0.0
2019-Feb-15 10:54N 18°25' W 064°36'2 6.3
2019-Feb-15 10:30N 18°24' W 064°34'1 1.0
2019-Feb-15 10:00N 18°24' W 064°33'5 8.4
2019-Feb-15 09:25N 18°27' W 064°29'511.4
2019-Feb-15 09:00N 18°32' W 064°32'713.7
2019-Feb-15 08:30N 18°37' W 064°35'713.9
2019-Feb-15 07:59N 18°43' W 064°40'913.7
2019-Feb-15 07:19N 18°51' W 064°45'8311.3
2019-Feb-15 00:00N 19°42' W 065°54'9712.1 130 / 171015.410.8 25.722.526.0
2019-Feb-14 16:00N 20°18' W 067°30'77 1.6 160 / 221017.710.8 26.521.326.0
2019-Feb-12 16:00N 19°54' W 066°12'6120.5 090 / 251021.110.8 25.521.026.0
2019-Feb-12 13:00N 19°30' W 065°12'12415.1 090 / 251021.010.8 25.521.026.0
2019-Feb-12 04:49N 18°13' W 063°30'515.9
2019-Feb-12 04:29N 18°09' W 063°26'  
Track history (hours):
 
Tides and Currents Weather Stations Pressure Air Temp Water Temp Dewpoint Dewpoint Depression Visibility Wind Speed Wind Dir Waves Ship Positions

Azure

Last reported at 2019-Feb-22 04:00 UTC. Time now 2019-Feb-23 17:20 UTC.
Position N 12°42' W 060°12'.

Length 289 m; draft 8.6 m.

Type: Passenger vessel. MMSI: 310610000.

Wind from 060 at 28 knots

Barometer 1016.2 mb
Air temperature 25.5 ° C
Visibility: greater than 10.8 NM
Dewpoint 19.3 ° C
Water temperature 27.0 ° C

Date/timePositionNaut miles runAvg speedWind from/ knotsBaromVisibWave heightAir tempDewpointWater temp
2019-Feb-22 04:00N 12°42' W 060°12'102 4.7 060 / 281016.210.8 25.519.327.0
2019-Feb-21 06:00N 12°18' W 061°54'36 1.5 070 / 251015.610.8 25.521.027.0
2019-Feb-20 06:00N 12°54' W 061°48'42 7.0 090 / 351017.0 5.4 25.521.827.0
2019-Feb-20 00:00N 12°12' W 061°48'119 4.7 100 / 251016.210.8 26.220.526.8
2019-Feb-18 22:38N 14°03' W 061°04'212.5
2019-Feb-18 22:27N 14°02' W 061°02'12 1.1
2019-Feb-18 11:09N 14°11' W 061°09'516.9
2019-Feb-18 10:50N 14°16' W 061°12'917.0
2019-Feb-18 10:19N 14°24' W 061°16'717.8
2019-Feb-18 09:55N 14°30' W 061°20'918.0
2019-Feb-18 09:27N 14°37' W 061°24'918.8
2019-Feb-18 08:59N 14°45' W 061°28'9118.3
2019-Feb-18 04:00N 16°06' W 062°12'8220.4 070 / 251018.010.8 25.019.626.0
2019-Feb-17 23:58N 17°17' W 062°55'818.3
2019-Feb-17 23:30N 17°26' W 062°55'814.9
2019-Feb-17 23:00N 17°18' W 062°54'20115.0 090 / 201017.210.8 26.221.626.3
2019-Feb-17 22:49N 17°38' W 062°56'618.4
2019-Feb-17 22:30N 17°43' W 062°59'1117.8
2019-Feb-17 21:52N 17°54' W 063°04'616.3
2019-Feb-17 21:30N 17°59' W 063°05'3 3.1
2019-Feb-17 20:39N 18°01' W 063°03'0 0.0
2019-Feb-17 20:21N 18°01' W 063°03'0 0.0
2019-Feb-17 19:21N 18°01' W 063°03'0 0.0
2019-Feb-17 18:39N 18°01' W 063°03'0 0.0
2019-Feb-17 18:09N 18°01' W 063°03'0 0.0
2019-Feb-17 17:57N 18°01' W 063°03'0 0.0
2019-Feb-17 17:12N 18°01' W 063°03'0 0.0
2019-Feb-17 17:00N 18°01' W 063°03'0 0.0
2019-Feb-17 16:12N 18°01' W 063°03'0 0.0
2019-Feb-17 16:00N 18°01' W 063°03'0 0.0
2019-Feb-17 15:30N 18°01' W 063°03'0 0.0
2019-Feb-17 14:57N 18°01' W 063°03'0 0.0
2019-Feb-17 14:27N 18°01' W 063°03'0 0.0
2019-Feb-17 14:00N 18°01' W 063°03'0 0.0
2019-Feb-17 13:30N 18°01' W 063°03'0 0.0
2019-Feb-17 13:00N 18°01' W 063°03'0 0.0
2019-Feb-17 12:30N 18°01' W 063°03'0 0.0
2019-Feb-17 12:00N 18°01' W 063°03'0 0.0
2019-Feb-17 11:30N 18°01' W 063°03'0 0.0
2019-Feb-17 11:00N 18°01' W 063°03'1 1.0
2019-Feb-17 10:29N 18°00' W 063°03'3 6.0
2019-Feb-17 09:59N 18°00' W 063°06'5 7.5
2019-Feb-17 09:22N 18°00' W 063°11'4 7.8
2019-Feb-17 08:48N 18°00' W 063°16'3 7.6
2019-Feb-17 08:27N 18°00' W 063°18'4 7.4
2019-Feb-17 07:58N 18°00' W 063°22'4 6.5
2019-Feb-17 07:22N 17°59' W 063°26'3 8.2
2019-Feb-17 07:00N 17°56' W 063°26'9 8.0
2019-Feb-17 05:50N 17°47' W 063°26'2 7.4
2019-Feb-17 05:30N 17°46' W 063°23'4 7.9
2019-Feb-17 04:56N 17°46' W 063°19'6 8.0
2019-Feb-17 04:11N 17°46' W 063°12'2 8.4
2019-Feb-17 03:55N 17°45' W 063°10'4 7.9
2019-Feb-17 03:28N 17°45' W 063°06'4 7.9
2019-Feb-17 03:00N 17°41' W 063°06'5 8.1
2019-Feb-17 02:27N 17°37' W 063°06'4 8.2
2019-Feb-17 01:59N 17°33' W 063°07'4 8.1
2019-Feb-17 01:28N 17°29' W 063°08'4 7.8
2019-Feb-17 00:54N 17°25' W 063°06'4 7.6
2019-Feb-17 00:23N 17°23' W 063°03'6 7.8
2019-Feb-16 23:41N 17°19' W 062°58'2 8.1
2019-Feb-16 23:30N 17°18' W 062°57'10 7.6
2019-Feb-16 22:11N 17°15' W 062°47'2 8.1
2019-Feb-16 21:56N 17°15' W 062°45'2 0.2
2019-Feb-16 10:16N 17°17' W 062°43'8 7.1
2019-Feb-16 09:13N 17°17' W 062°51'210.7
2019-Feb-16 09:00N 17°19' W 062°53'611.2
2019-Feb-16 08:30N 17°22' W 062°58'611.1
2019-Feb-16 07:57N 17°26' W 063°02'611.1
2019-Feb-16 07:24N 17°32' W 063°06'511.3
2019-Feb-16 06:58N 17°36' W 063°08'611.2
2019-Feb-16 06:28N 17°41' W 063°11'511.0
2019-Feb-16 05:59N 17°44' W 063°16'510.9
2019-Feb-16 05:30N 17°46' W 063°21'611.1
2019-Feb-16 04:57N 17°49' W 063°26'511.0
2019-Feb-16 04:29N 17°51' W 063°31'611.2
2019-Feb-16 03:58N 17°54' W 063°36'511.2
2019-Feb-16 03:30N 17°56' W 063°41'611.2
2019-Feb-16 02:58N 17°58' W 063°47'611.3
2019-Feb-16 02:27N 18°01' W 063°53'32 9.2
2019-Feb-15 23:00N 18°12' W 064°24'1141.6 150 / 151015.910.8 26.222.226.0
2019-Feb-15 22:44N 18°19' W 064°32'311.2
2019-Feb-15 22:30N 18°22' W 064°33'4 7.0
2019-Feb-15 21:54N 18°25' W 064°36'0 0.0
2019-Feb-15 10:54N 18°25' W 064°36'2 6.3
2019-Feb-15 10:30N 18°24' W 064°34'1 1.0
2019-Feb-15 10:00N 18°24' W 064°33'5 8.4
2019-Feb-15 09:25N 18°27' W 064°29'511.4
2019-Feb-15 09:00N 18°32' W 064°32'713.7
2019-Feb-15 08:30N 18°37' W 064°35'713.9
2019-Feb-15 07:59N 18°43' W 064°40'913.7
2019-Feb-15 07:19N 18°51' W 064°45'8311.3
2019-Feb-15 00:00N 19°42' W 065°54'9712.1 130 / 171015.410.8 25.722.526.0
2019-Feb-14 16:00N 20°18' W 067°30'77 1.6 160 / 221017.710.8 26.521.326.0
2019-Feb-12 16:00N 19°54' W 066°12'6120.5 090 / 251021.110.8 25.521.026.0
2019-Feb-12 13:00N 19°30' W 065°12'12415.1 090 / 251021.010.8 25.521.026.0
2019-Feb-12 04:49N 18°13' W 063°30'515.9
2019-Feb-12 04:29N 18°09' W 063°26'  

Dump ship's entire track history